Gunness, United Kingdom
Current Conditions -  °F | °C
As of 8:50 PM on Saturday 20 Dec 2014 (Local Time) from EGCN Reporting Station
Broken Clouds Broken Clouds  
Wind Chill: 41°   Ceiling: 3700
Heat Index: 46°   Visibility: 6mi
Dew Point: 41°   Wind: 10mph
Humidity: 81%   Direction: 250°WSW
Pressure: 30.36"   Gusts: NA
Location:  53.59°N, 0.73°W
Report Text: EGCN 202050Z 25009KT 9999 BKN037 08/05 Q1028
Loading
Personal Weather Stations






























Interactive Weather Map New forecast layout! Learn more

10-Day Weather Forecast

Advertisements
Track Severe Weather on mobile